sensor_id;sensor_type;location;lat;lon;timestamp;P1;durP1;ratioP1;P2;durP2;ratioP2
51724;SDS011;37801;53.224;6.552;2022-07-11T00:00:09;4.50;;;1.67;;
51724;SDS011;37801;53.224;6.552;2022-07-11T00:02:37;5.88;;;1.27;;
51724;SDS011;37801;53.224;6.552;2022-07-11T00:05:10;3.97;;;1.30;;
51724;SDS011;37801;53.224;6.552;2022-07-11T00:07:36;3.40;;;1.23;;
51724;SDS011;37801;53.224;6.552;2022-07-11T00:10:02;4.22;;;1.55;;
51724;SDS011;37801;53.224;6.552;2022-07-11T00:12:28;3.53;;;1.70;;
51724;SDS011;37801;53.224;6.552;2022-07-11T00:14:54;2.03;;;1.33;;
51724;SDS011;37801;53.224;6.552;2022-07-11T00:17:21;3.92;;;1.63;;
51724;SDS011;37801;53.224;6.552;2022-07-11T00:19:48;5.45;;;1.50;;
51724;SDS011;37801;53.224;6.552;2022-07-11T00:22:14;2.75;;;1.52;;
51724;SDS011;37801;53.224;6.552;2022-07-11T00:24:40;3.45;;;1.60;;
51724;SDS011;37801;53.224;6.552;2022-07-11T00:27:06;3.25;;;1.30;;
51724;SDS011;37801;53.224;6.552;2022-07-11T00:29:31;2.90;;;1.38;;
51724;SDS011;37801;53.224;6.552;2022-07-11T00:31:58;4.80;;;1.73;;
51724;SDS011;37801;53.224;6.552;2022-07-11T00:34:24;3.50;;;1.63;;
51724;SDS011;37801;53.224;6.552;2022-07-11T00:36:50;2.75;;;1.77;;
51724;SDS011;37801;53.224;6.552;2022-07-11T00:39:16;3.60;;;1.80;;
51724;SDS011;37801;53.224;6.552;2022-07-11T00:41:42;3.20;;;1.42;;
51724;SDS011;37801;53.224;6.552;2022-07-11T00:44:08;3.78;;;1.90;;
51724;SDS011;37801;53.224;6.552;2022-07-11T00:46:33;2.38;;;1.70;;
51724;SDS011;37801;53.224;6.552;2022-07-11T00:48:59;2.97;;;1.83;;
51724;SDS011;37801;53.224;6.552;2022-07-11T00:51:25;3.80;;;1.67;;
51724;SDS011;37801;53.224;6.552;2022-07-11T00:53:55;3.70;;;1.73;;
51724;SDS011;37801;53.224;6.552;2022-07-11T00:56:23;3.47;;;1.70;;
51724;SDS011;37801;53.224;6.552;2022-07-11T00:58:50;3.08;;;1.60;;
51724;SDS011;37801;53.224;6.552;2022-07-11T01:01:17;4.20;;;1.48;;
51724;SDS011;37801;53.224;6.552;2022-07-11T01:03:43;3.58;;;1.58;;
51724;SDS011;37801;53.224;6.552;2022-07-11T01:06:10;4.22;;;1.70;;
51724;SDS011;37801;53.224;6.552;2022-07-11T01:08:37;2.95;;;1.90;;
51724;SDS011;37801;53.224;6.552;2022-07-11T01:11:04;3.60;;;1.67;;
51724;SDS011;37801;53.224;6.552;2022-07-11T01:13:34;4.22;;;1.77;;
51724;SDS011;37801;53.224;6.552;2022-07-11T01:16:33;3.50;;;1.75;;
51724;SDS011;37801;53.224;6.552;2022-07-11T01:18:53;2.33;;;1.40;;
51724;SDS011;37801;53.224;6.552;2022-07-11T01:21:33;3.63;;;1.52;;
51724;SDS011;37801;53.224;6.552;2022-07-11T01:24:05;4.28;;;1.95;;
51724;SDS011;37801;53.224;6.552;2022-07-11T01:26:31;2.78;;;1.60;;
51724;SDS011;37801;53.224;6.552;2022-07-11T01:29:07;2.75;;;1.55;;
51724;SDS011;37801;53.224;6.552;2022-07-11T01:31:37;3.85;;;1.75;;
51724;SDS011;37801;53.224;6.552;2022-07-11T01:34:04;3.17;;;1.60;;
51724;SDS011;37801;53.224;6.552;2022-07-11T01:36:30;2.72;;;1.65;;
51724;SDS011;37801;53.224;6.552;2022-07-11T01:38:56;3.90;;;1.65;;
51724;SDS011;37801;53.224;6.552;2022-07-11T01:41:22;4.70;;;1.77;;
51724;SDS011;37801;53.224;6.552;2022-07-11T01:43:48;4.72;;;1.80;;
51724;SDS011;37801;53.224;6.552;2022-07-11T01:46:14;4.05;;;1.98;;
51724;SDS011;37801;53.224;6.552;2022-07-11T01:48:41;3.05;;;1.88;;
51724;SDS011;37801;53.224;6.552;2022-07-11T01:51:07;3.67;;;1.88;;
51724;SDS011;37801;53.224;6.552;2022-07-11T01:53:33;2.78;;;1.63;;
51724;SDS011;37801;53.224;6.552;2022-07-11T01:55:59;3.05;;;1.85;;
51724;SDS011;37801;53.224;6.552;2022-07-11T01:58:24;3.42;;;1.98;;
51724;SDS011;37801;53.224;6.552;2022-07-11T02:00:50;4.22;;;1.90;;
51724;SDS011;37801;53.224;6.552;2022-07-11T02:03:17;2.85;;;1.77;;
51724;SDS011;37801;53.224;6.552;2022-07-11T02:05:43;3.33;;;1.77;;
51724;SDS011;37801;53.224;6.552;2022-07-11T02:08:09;4.05;;;1.98;;
51724;SDS011;37801;53.224;6.552;2022-07-11T02:10:45;3.22;;;1.73;;
51724;SDS011;37801;53.224;6.552;2022-07-11T02:13:13;4.22;;;1.92;;
51724;SDS011;37801;53.224;6.552;2022-07-11T02:15:40;2.47;;;1.40;;
51724;SDS011;37801;53.224;6.552;2022-07-11T02:18:07;2.00;;;1.30;;
51724;SDS011;37801;53.224;6.552;2022-07-11T02:20:34;2.25;;;1.30;;
51724;SDS011;37801;53.224;6.552;2022-07-11T02:23:00;2.83;;;1.40;;
51724;SDS011;37801;53.224;6.552;2022-07-11T02:25:26;4.72;;;1.45;;
51724;SDS011;37801;53.224;6.552;2022-07-11T02:27:53;2.38;;;1.67;;
51724;SDS011;37801;53.224;6.552;2022-07-11T02:30:18;2.70;;;1.42;;
51724;SDS011;37801;53.224;6.552;2022-07-11T02:32:44;2.28;;;1.48;;
51724;SDS011;37801;53.224;6.552;2022-07-11T02:35:10;2.95;;;1.63;;
51724;SDS011;37801;53.224;6.552;2022-07-11T02:37:36;3.25;;;1.67;;
51724;SDS011;37801;53.224;6.552;2022-07-11T02:40:01;3.13;;;1.50;;
51724;SDS011;37801;53.224;6.552;2022-07-11T02:42:27;3.67;;;1.98;;
51724;SDS011;37801;53.224;6.552;2022-07-11T02:44:53;2.78;;;1.77;;
51724;SDS011;37801;53.224;6.552;2022-07-11T02:47:19;4.13;;;1.95;;
51724;SDS011;37801;53.224;6.552;2022-07-11T02:49:44;2.97;;;1.67;;
51724;SDS011;37801;53.224;6.552;2022-07-11T02:52:13;3.35;;;1.85;;
51724;SDS011;37801;53.224;6.552;2022-07-11T02:54:39;5.82;;;3.00;;
51724;SDS011;37801;53.224;6.552;2022-07-11T02:57:04;4.35;;;2.90;;
51724;SDS011;37801;53.224;6.552;2022-07-11T02:59:30;3.25;;;1.92;;
51724;SDS011;37801;53.224;6.552;2022-07-11T03:01:56;2.88;;;1.60;;
51724;SDS011;37801;53.224;6.552;2022-07-11T03:04:22;3.85;;;1.73;;
51724;SDS011;37801;53.224;6.552;2022-07-11T03:06:47;3.17;;;1.65;;
51724;SDS011;37801;53.224;6.552;2022-07-11T03:09:13;3.42;;;1.80;;
51724;SDS011;37801;53.224;6.552;2022-07-11T03:11:39;3.38;;;1.63;;
51724;SDS011;37801;53.224;6.552;2022-07-11T03:14:04;3.63;;;1.90;;
51724;SDS011;37801;53.224;6.552;2022-07-11T03:16:30;4.53;;;1.83;;
51724;SDS011;37801;53.224;6.552;2022-07-11T03:18:56;2.40;;;1.23;;
51724;SDS011;37801;53.224;6.552;2022-07-11T03:21:23;2.75;;;1.35;;
51724;SDS011;37801;53.224;6.552;2022-07-11T03:23:49;2.97;;;1.33;;
51724;SDS011;37801;53.224;6.552;2022-07-11T03:26:15;3.80;;;1.33;;
51724;SDS011;37801;53.224;6.552;2022-07-11T03:28:44;2.13;;;1.00;;
51724;SDS011;37801;53.224;6.552;2022-07-11T03:31:09;1.90;;;1.00;;
51724;SDS011;37801;53.224;6.552;2022-07-11T03:33:36;1.45;;;0.90;;
51724;SDS011;37801;53.224;6.552;2022-07-11T03:36:02;1.60;;;0.90;;
51724;SDS011;37801;53.224;6.552;2022-07-11T03:38:28;2.00;;;0.80;;
51724;SDS011;37801;53.224;6.552;2022-07-11T03:40:54;2.53;;;0.88;;
51724;SDS011;37801;53.224;6.552;2022-07-11T03:43:21;1.60;;;0.82;;
51724;SDS011;37801;53.224;6.552;2022-07-11T03:45:47;2.03;;;0.73;;
51724;SDS011;37801;53.224;6.552;2022-07-11T03:48:13;3.75;;;0.95;;
51724;SDS011;37801;53.224;6.552;2022-07-11T03:50:39;1.58;;;0.73;;
51724;SDS011;37801;53.224;6.552;2022-07-11T03:53:05;3.15;;;0.82;;
51724;SDS011;37801;53.224;6.552;2022-07-11T03:55:31;1.50;;;0.88;;
51724;SDS011;37801;53.224;6.552;2022-07-11T03:57:57;3.17;;;1.08;;
51724;SDS011;37801;53.224;6.552;2022-07-11T04:00:23;1.38;;;0.90;;
51724;SDS011;37801;53.224;6.552;2022-07-11T04:02:49;3.40;;;1.00;;
51724;SDS011;37801;53.224;6.552;2022-07-11T04:05:15;2.13;;;1.10;;
51724;SDS011;37801;53.224;6.552;2022-07-11T04:07:41;2.53;;;0.93;;
51724;SDS011;37801;53.224;6.552;2022-07-11T04:10:08;1.92;;;0.90;;
51724;SDS011;37801;53.224;6.552;2022-07-11T04:12:34;2.80;;;0.90;;
51724;SDS011;37801;53.224;6.552;2022-07-11T04:15:00;3.88;;;1.10;;
51724;SDS011;37801;53.224;6.552;2022-07-11T04:17:26;3.13;;;1.10;;
51724;SDS011;37801;53.224;6.552;2022-07-11T04:19:52;2.33;;;1.15;;
51724;SDS011;37801;53.224;6.552;2022-07-11T04:22:18;1.27;;;0.90;;
51724;SDS011;37801;53.224;6.552;2022-07-11T04:24:44;2.08;;;0.88;;
51724;SDS011;37801;53.224;6.552;2022-07-11T04:27:10;2.78;;;1.05;;
51724;SDS011;37801;53.224;6.552;2022-07-11T04:29:36;1.38;;;0.80;;
51724;SDS011;37801;53.224;6.552;2022-07-11T04:32:02;2.25;;;0.95;;
51724;SDS011;37801;53.224;6.552;2022-07-11T04:34:27;3.17;;;0.90;;
51724;SDS011;37801;53.224;6.552;2022-07-11T04:36:53;2.15;;;1.00;;
51724;SDS011;37801;53.224;6.552;2022-07-11T04:39:19;2.10;;;0.88;;
51724;SDS011;37801;53.224;6.552;2022-07-11T04:41:44;1.80;;;0.80;;
51724;SDS011;37801;53.224;6.552;2022-07-11T04:44:10;2.45;;;0.90;;
51724;SDS011;37801;53.224;6.552;2022-07-11T04:46:36;1.58;;;0.70;;
51724;SDS011;37801;53.224;6.552;2022-07-11T04:49:03;2.45;;;0.98;;
51724;SDS011;37801;53.224;6.552;2022-07-11T04:51:28;1.40;;;0.85;;
51724;SDS011;37801;53.224;6.552;2022-07-11T04:53:54;1.45;;;0.80;;
51724;SDS011;37801;53.224;6.552;2022-07-11T04:56:20;1.48;;;0.65;;
51724;SDS011;37801;53.224;6.552;2022-07-11T04:58:45;1.88;;;1.17;;
51724;SDS011;37801;53.224;6.552;2022-07-11T05:01:11;3.03;;;1.80;;
51724;SDS011;37801;53.224;6.552;2022-07-11T05:03:37;1.10;;;0.80;;
51724;SDS011;37801;53.224;6.552;2022-07-11T05:06:03;1.88;;;0.80;;
51724;SDS011;37801;53.224;6.552;2022-07-11T05:08:31;1.63;;;0.55;;
51724;SDS011;37801;53.224;6.552;2022-07-11T05:11:01;1.60;;;0.73;;
51724;SDS011;37801;53.224;6.552;2022-07-11T05:13:28;2.00;;;0.80;;
51724;SDS011;37801;53.224;6.552;2022-07-11T05:15:54;1.38;;;0.82;;
51724;SDS011;37801;53.224;6.552;2022-07-11T05:18:20;1.65;;;0.60;;
51724;SDS011;37801;53.224;6.552;2022-07-11T05:20:45;1.80;;;0.80;;
51724;SDS011;37801;53.224;6.552;2022-07-11T05:23:11;1.73;;;0.55;;
51724;SDS011;37801;53.224;6.552;2022-07-11T05:25:37;1.10;;;0.50;;
51724;SDS011;37801;53.224;6.552;2022-07-11T05:28:02;1.83;;;0.68;;
51724;SDS011;37801;53.224;6.552;2022-07-11T05:30:28;0.93;;;0.47;;
51724;SDS011;37801;53.224;6.552;2022-07-11T05:32:54;1.42;;;0.60;;
51724;SDS011;37801;53.224;6.552;2022-07-11T05:35:19;1.63;;;0.80;;
51724;SDS011;37801;53.224;6.552;2022-07-11T05:37:45;1.27;;;0.43;;
51724;SDS011;37801;53.224;6.552;2022-07-11T05:40:11;1.73;;;0.70;;
51724;SDS011;37801;53.224;6.552;2022-07-11T05:42:37;1.27;;;0.60;;
51724;SDS011;37801;53.224;6.552;2022-07-11T05:45:02;1.40;;;0.70;;
51724;SDS011;37801;53.224;6.552;2022-07-11T05:47:28;0.75;;;0.50;;
51724;SDS011;37801;53.224;6.552;2022-07-11T05:49:54;0.90;;;0.60;;
51724;SDS011;37801;53.224;6.552;2022-07-11T05:52:19;0.77;;;0.45;;
51724;SDS011;37801;53.224;6.552;2022-07-11T05:54:45;1.40;;;0.70;;
51724;SDS011;37801;53.224;6.552;2022-07-11T05:57:11;1.08;;;0.52;;
51724;SDS011;37801;53.224;6.552;2022-07-11T05:59:37;2.78;;;0.80;;
51724;SDS011;37801;53.224;6.552;2022-07-11T06:02:03;1.25;;;0.57;;
51724;SDS011;37801;53.224;6.552;2022-07-11T06:04:29;1.77;;;0.50;;
51724;SDS011;37801;53.224;6.552;2022-07-11T06:06:57;2.20;;;0.57;;
51724;SDS011;37801;53.224;6.552;2022-07-11T06:09:23;1.88;;;0.55;;
51724;SDS011;37801;53.224;6.552;2022-07-11T06:11:48;2.72;;;1.67;;
51724;SDS011;37801;53.224;6.552;2022-07-11T06:14:14;4.57;;;3.70;;
51724;SDS011;37801;53.224;6.552;2022-07-11T06:16:40;4.47;;;3.03;;
51724;SDS011;37801;53.224;6.552;2022-07-11T06:19:06;3.97;;;2.67;;
51724;SDS011;37801;53.224;6.552;2022-07-11T06:21:31;4.40;;;2.13;;
51724;SDS011;37801;53.224;6.552;2022-07-11T06:23:57;1.67;;;0.77;;
51724;SDS011;37801;53.224;6.552;2022-07-11T06:26:23;2.55;;;0.80;;
51724;SDS011;37801;53.224;6.552;2022-07-11T06:28:48;2.05;;;0.60;;
51724;SDS011;37801;53.224;6.552;2022-07-11T06:31:14;1.67;;;0.50;;
51724;SDS011;37801;53.224;6.552;2022-07-11T06:33:41;1.70;;;0.50;;
51724;SDS011;37801;53.224;6.552;2022-07-11T06:36:07;1.55;;;0.50;;
51724;SDS011;37801;53.224;6.552;2022-07-11T06:38:33;1.90;;;0.60;;
51724;SDS011;37801;53.224;6.552;2022-07-11T06:40:59;1.50;;;0.50;;
51724;SDS011;37801;53.224;6.552;2022-07-11T06:43:25;2.95;;;0.50;;
51724;SDS011;37801;53.224;6.552;2022-07-11T06:45:53;2.90;;;0.45;;
51724;SDS011;37801;53.224;6.552;2022-07-11T06:48:18;1.65;;;0.50;;
51724;SDS011;37801;53.224;6.552;2022-07-11T06:50:45;1.45;;;0.52;;
51724;SDS011;37801;53.224;6.552;2022-07-11T06:53:11;0.82;;;0.35;;
51724;SDS011;37801;53.224;6.552;2022-07-11T06:55:37;2.90;;;0.60;;
51724;SDS011;37801;53.224;6.552;2022-07-11T06:58:03;1.08;;;0.40;;
51724;SDS011;37801;53.224;6.552;2022-07-11T07:00:30;1.83;;;0.60;;
51724;SDS011;37801;53.224;6.552;2022-07-11T07:02:57;1.65;;;0.50;;
51724;SDS011;37801;53.224;6.552;2022-07-11T07:05:23;1.92;;;0.63;;
51724;SDS011;37801;53.224;6.552;2022-07-11T07:07:50;1.42;;;0.50;;
51724;SDS011;37801;53.224;6.552;2022-07-11T07:10:16;1.13;;;0.60;;
51724;SDS011;37801;53.224;6.552;2022-07-11T07:12:42;1.77;;;0.70;;
51724;SDS011;37801;53.224;6.552;2022-07-11T07:15:09;1.73;;;0.60;;
51724;SDS011;37801;53.224;6.552;2022-07-11T07:17:36;1.63;;;0.80;;
51724;SDS011;37801;53.224;6.552;2022-07-11T07:20:03;1.67;;;0.77;;
51724;SDS011;37801;53.224;6.552;2022-07-11T07:22:30;1.63;;;0.70;;
51724;SDS011;37801;53.224;6.552;2022-07-11T07:24:56;1.77;;;0.80;;
51724;SDS011;37801;53.224;6.552;2022-07-11T07:27:22;1.38;;;0.70;;
51724;SDS011;37801;53.224;6.552;2022-07-11T07:29:48;1.50;;;0.60;;
51724;SDS011;37801;53.224;6.552;2022-07-11T07:32:14;1.40;;;0.70;;
51724;SDS011;37801;53.224;6.552;2022-07-11T07:34:40;2.75;;;0.65;;
51724;SDS011;37801;53.224;6.552;2022-07-11T07:37:06;2.13;;;0.60;;
51724;SDS011;37801;53.224;6.552;2022-07-11T07:39:31;1.20;;;0.68;;
51724;SDS011;37801;53.224;6.552;2022-07-11T07:41:57;1.92;;;0.50;;
51724;SDS011;37801;53.224;6.552;2022-07-11T07:44:23;2.30;;;0.50;;
51724;SDS011;37801;53.224;6.552;2022-07-11T07:46:49;1.65;;;0.50;;
51724;SDS011;37801;53.224;6.552;2022-07-11T07:49:14;0.68;;;0.40;;
51724;SDS011;37801;53.224;6.552;2022-07-11T07:51:41;0.82;;;0.43;;
51724;SDS011;37801;53.224;6.552;2022-07-11T07:54:07;1.15;;;0.40;;
51724;SDS011;37801;53.224;6.552;2022-07-11T07:56:32;0.85;;;0.40;;
51724;SDS011;37801;53.224;6.552;2022-07-11T07:58:58;1.23;;;0.40;;
51724;SDS011;37801;53.224;6.552;2022-07-11T08:01:24;2.05;;;0.60;;
51724;SDS011;37801;53.224;6.552;2022-07-11T08:04:02;1.27;;;0.50;;
51724;SDS011;37801;53.224;6.552;2022-07-11T08:06:29;1.10;;;0.30;;
51724;SDS011;37801;53.224;6.552;2022-07-11T08:08:55;1.15;;;0.40;;
51724;SDS011;37801;53.224;6.552;2022-07-11T08:11:20;1.20;;;0.50;;
51724;SDS011;37801;53.224;6.552;2022-07-11T08:13:46;0.80;;;0.50;;
51724;SDS011;37801;53.224;6.552;2022-07-11T08:16:13;0.32;;;0.30;;
51724;SDS011;37801;53.224;6.552;2022-07-11T08:18:39;0.25;;;0.25;;
51724;SDS011;37801;53.224;6.552;2022-07-11T08:21:05;0.85;;;0.40;;
51724;SDS011;37801;53.224;6.552;2022-07-11T08:23:30;0.90;;;0.50;;
51724;SDS011;37801;53.224;6.552;2022-07-11T08:25:56;0.98;;;0.40;;
51724;SDS011;37801;53.224;6.552;2022-07-11T08:28:22;0.60;;;0.30;;
51724;SDS011;37801;53.224;6.552;2022-07-11T08:30:48;1.08;;;0.40;;
51724;SDS011;37801;53.224;6.552;2022-07-11T08:33:14;2.15;;;0.40;;
51724;SDS011;37801;53.224;6.552;2022-07-11T08:35:40;0.85;;;0.30;;
51724;SDS011;37801;53.224;6.552;2022-07-11T08:38:05;0.43;;;0.40;;
51724;SDS011;37801;53.224;6.552;2022-07-11T08:40:31;1.00;;;0.30;;
51724;SDS011;37801;53.224;6.552;2022-07-11T08:42:57;0.98;;;0.40;;
51724;SDS011;37801;53.224;6.552;2022-07-11T08:45:28;1.52;;;0.43;;
51724;SDS011;37801;53.224;6.552;2022-07-11T08:47:55;0.40;;;0.30;;
51724;SDS011;37801;53.224;6.552;2022-07-11T08:50:22;0.98;;;0.30;;
51724;SDS011;37801;53.224;6.552;2022-07-11T08:52:48;0.65;;;0.30;;
51724;SDS011;37801;53.224;6.552;2022-07-11T08:55:14;0.75;;;0.30;;
51724;SDS011;37801;53.224;6.552;2022-07-11T08:57:40;0.80;;;0.30;;
51724;SDS011;37801;53.224;6.552;2022-07-11T09:00:07;0.85;;;0.40;;
51724;SDS011;37801;53.224;6.552;2022-07-11T09:02:34;0.65;;;0.40;;
51724;SDS011;37801;53.224;6.552;2022-07-11T09:05:04;0.20;;;0.20;;
51724;SDS011;37801;53.224;6.552;2022-07-11T09:07:33;1.30;;;0.30;;
51724;SDS011;37801;53.224;6.552;2022-07-11T09:10:06;0.30;;;0.28;;
51724;SDS011;37801;53.224;6.552;2022-07-11T09:12:32;0.40;;;0.30;;
51724;SDS011;37801;53.224;6.552;2022-07-11T09:14:58;1.02;;;0.30;;
51724;SDS011;37801;53.224;6.552;2022-07-11T09:17:25;1.42;;;0.30;;
51724;SDS011;37801;53.224;6.552;2022-07-11T09:19:57;0.52;;;0.40;;
51724;SDS011;37801;53.224;6.552;2022-07-11T09:22:24;0.55;;;0.30;;
51724;SDS011;37801;53.224;6.552;2022-07-11T09:25:09;0.45;;;0.20;;
51724;SDS011;37801;53.224;6.552;2022-07-11T09:32:53;1.33;;;0.50;;
51724;SDS011;37801;53.224;6.552;2022-07-11T09:35:22;2.25;;;0.30;;
51724;SDS011;37801;53.224;6.552;2022-07-11T09:37:50;0.88;;;0.28;;
51724;SDS011;37801;53.224;6.552;2022-07-11T09:40:16;1.02;;;0.22;;
51724;SDS011;37801;53.224;6.552;2022-07-11T09:42:46;1.20;;;0.40;;
51724;SDS011;37801;53.224;6.552;2022-07-11T09:45:17;1.40;;;0.30;;
51724;SDS011;37801;53.224;6.552;2022-07-11T09:47:51;0.20;;;0.20;;
51724;SDS011;37801;53.224;6.552;2022-07-11T09:50:22;0.85;;;0.30;;
51724;SDS011;37801;53.224;6.552;2022-07-11T09:55:47;0.28;;;0.25;;
51724;SDS011;37801;53.224;6.552;2022-07-11T09:58:13;1.10;;;0.40;;
51724;SDS011;37801;53.224;6.552;2022-07-11T10:00:40;0.82;;;0.28;;
51724;SDS011;37801;53.224;6.552;2022-07-11T10:03:07;0.30;;;0.20;;
51724;SDS011;37801;53.224;6.552;2022-07-11T10:05:35;1.00;;;0.40;;
51724;SDS011;37801;53.224;6.552;2022-07-11T10:08:02;0.80;;;0.50;;
51724;SDS011;37801;53.224;6.552;2022-07-11T10:10:29;1.42;;;0.50;;
51724;SDS011;37801;53.224;6.552;2022-07-11T10:12:56;0.75;;;0.40;;
51724;SDS011;37801;53.224;6.552;2022-07-11T10:15:23;1.27;;;0.40;;
51724;SDS011;37801;53.224;6.552;2022-07-11T10:20:35;0.60;;;0.35;;
51724;SDS011;37801;53.224;6.552;2022-07-11T10:25:57;3.13;;;1.50;;
51724;SDS011;37801;53.224;6.552;2022-07-11T10:31:22;2.78;;;0.55;;
51724;SDS011;37801;53.224;6.552;2022-07-11T10:34:02;1.42;;;0.63;;
51724;SDS011;37801;53.224;6.552;2022-07-11T10:36:30;1.70;;;0.50;;
51724;SDS011;37801;53.224;6.552;2022-07-11T10:41:55;1.60;;;0.50;;
51724;SDS011;37801;53.224;6.552;2022-07-11T10:44:25;1.83;;;0.40;;
51724;SDS011;37801;53.224;6.552;2022-07-11T10:46:53;2.90;;;0.50;;
51724;SDS011;37801;53.224;6.552;2022-07-11T10:51:57;1.90;;;0.60;;
51724;SDS011;37801;53.224;6.552;2022-07-11T10:59:55;7.80;;;2.88;;
51724;SDS011;37801;53.224;6.552;2022-07-11T11:02:22;3.45;;;2.03;;
51724;SDS011;37801;53.224;6.552;2022-07-11T11:07:39;3.47;;;0.70;;
51724;SDS011;37801;53.224;6.552;2022-07-11T11:13:09;0.55;;;0.30;;
51724;SDS011;37801;53.224;6.552;2022-07-11T11:23:39;1.45;;;0.50;;
51724;SDS011;37801;53.224;6.552;2022-07-11T11:28:38;1.05;;;0.40;;
51724;SDS011;37801;53.224;6.552;2022-07-11T11:31:27;0.65;;;0.40;;
51724;SDS011;37801;53.224;6.552;2022-07-11T11:33:55;2.85;;;0.40;;
51724;SDS011;37801;53.224;6.552;2022-07-11T11:36:23;0.82;;;0.30;;
51724;SDS011;37801;53.224;6.552;2022-07-11T11:38:50;1.65;;;0.30;;
51724;SDS011;37801;53.224;6.552;2022-07-11T11:41:24;1.15;;;0.30;;
51724;SDS011;37801;53.224;6.552;2022-07-11T11:43:50;1.05;;;0.40;;
51724;SDS011;37801;53.224;6.552;2022-07-11T11:46:17;1.95;;;0.32;;
51724;SDS011;37801;53.224;6.552;2022-07-11T11:48:43;0.70;;;0.50;;
51724;SDS011;37801;53.224;6.552;2022-07-11T11:51:13;1.98;;;0.47;;
51724;SDS011;37801;53.224;6.552;2022-07-11T11:53:40;3.00;;;0.60;;
51724;SDS011;37801;53.224;6.552;2022-07-11T11:59:04;0.20;;;0.20;;
51724;SDS011;37801;53.224;6.552;2022-07-11T12:01:33;0.80;;;0.38;;
51724;SDS011;37801;53.224;6.552;2022-07-11T12:04:04;1.05;;;0.40;;
51724;SDS011;37801;53.224;6.552;2022-07-11T12:06:38;0.80;;;0.40;;
51724;SDS011;37801;53.224;6.552;2022-07-11T12:11:33;2.28;;;0.60;;
51724;SDS011;37801;53.224;6.552;2022-07-11T12:14:01;1.90;;;0.52;;
51724;SDS011;37801;53.224;6.552;2022-07-11T12:16:28;0.82;;;0.40;;
51724;SDS011;37801;53.224;6.552;2022-07-11T12:19:12;1.15;;;0.43;;
51724;SDS011;37801;53.224;6.552;2022-07-11T12:21:46;0.50;;;0.30;;
51724;SDS011;37801;53.224;6.552;2022-07-11T12:26:45;1.05;;;0.50;;
51724;SDS011;37801;53.224;6.552;2022-07-11T12:29:16;2.05;;;0.40;;
51724;SDS011;37801;53.224;6.552;2022-07-11T12:34:18;1.25;;;0.52;;
51724;SDS011;37801;53.224;6.552;2022-07-11T12:36:46;0.68;;;0.32;;
51724;SDS011;37801;53.224;6.552;2022-07-11T12:39:25;0.90;;;0.50;;
51724;SDS011;37801;53.224;6.552;2022-07-11T12:41:52;0.90;;;0.30;;
51724;SDS011;37801;53.224;6.552;2022-07-11T12:47:07;0.65;;;0.40;;
51724;SDS011;37801;53.224;6.552;2022-07-11T12:49:33;0.30;;;0.30;;
51724;SDS011;37801;53.224;6.552;2022-07-11T12:51:59;1.25;;;0.40;;
51724;SDS011;37801;53.224;6.552;2022-07-11T12:54:31;1.02;;;0.50;;
51724;SDS011;37801;53.224;6.552;2022-07-11T12:56:58;0.60;;;0.30;;
51724;SDS011;37801;53.224;6.552;2022-07-11T12:59:28;0.60;;;0.30;;
51724;SDS011;37801;53.224;6.552;2022-07-11T13:02:09;0.57;;;0.38;;
51724;SDS011;37801;53.224;6.552;2022-07-11T13:10:07;0.30;;;0.22;;
51724;SDS011;37801;53.224;6.552;2022-07-11T13:12:34;0.43;;;0.32;;
51724;SDS011;37801;53.224;6.552;2022-07-11T13:15:00;0.65;;;0.30;;
51724;SDS011;37801;53.224;6.552;2022-07-11T13:17:38;0.40;;;0.30;;
51724;SDS011;37801;53.224;6.552;2022-07-11T13:20:06;0.30;;;0.30;;
51724;SDS011;37801;53.224;6.552;2022-07-11T13:22:33;1.05;;;0.40;;
51724;SDS011;37801;53.224;6.552;2022-07-11T13:24:59;0.90;;;0.38;;
51724;SDS011;37801;53.224;6.552;2022-07-11T13:27:24;0.85;;;0.30;;
51724;SDS011;37801;53.224;6.552;2022-07-11T13:29:50;0.50;;;0.40;;
51724;SDS011;37801;53.224;6.552;2022-07-11T13:32:16;0.40;;;0.40;;
51724;SDS011;37801;53.224;6.552;2022-07-11T13:34:42;1.27;;;0.50;;
51724;SDS011;37801;53.224;6.552;2022-07-11T13:37:07;0.85;;;0.50;;
51724;SDS011;37801;53.224;6.552;2022-07-11T13:39:33;0.88;;;0.50;;
51724;SDS011;37801;53.224;6.552;2022-07-11T13:41:59;0.68;;;0.40;;
51724;SDS011;37801;53.224;6.552;2022-07-11T13:44:24;1.38;;;0.50;;
51724;SDS011;37801;53.224;6.552;2022-07-11T13:46:51;2.85;;;0.90;;
51724;SDS011;37801;53.224;6.552;2022-07-11T13:49:16;2.53;;;0.55;;
51724;SDS011;37801;53.224;6.552;2022-07-11T13:51:42;1.10;;;0.50;;
51724;SDS011;37801;53.224;6.552;2022-07-11T13:54:08;2.90;;;0.60;;
51724;SDS011;37801;53.224;6.552;2022-07-11T13:56:33;0.85;;;0.60;;
51724;SDS011;37801;53.224;6.552;2022-07-11T13:58:59;1.42;;;0.68;;
51724;SDS011;37801;53.224;6.552;2022-07-11T14:01:25;3.17;;;0.57;;
51724;SDS011;37801;53.224;6.552;2022-07-11T14:03:51;1.27;;;0.52;;
51724;SDS011;37801;53.224;6.552;2022-07-11T14:06:17;1.75;;;0.60;;
51724;SDS011;37801;53.224;6.552;2022-07-11T14:08:43;1.15;;;0.70;;
51724;SDS011;37801;53.224;6.552;2022-07-11T14:11:08;0.82;;;0.57;;
51724;SDS011;37801;53.224;6.552;2022-07-11T14:13:34;1.02;;;0.70;;
51724;SDS011;37801;53.224;6.552;2022-07-11T14:16:00;0.90;;;0.70;;
51724;SDS011;37801;53.224;6.552;2022-07-11T14:18:25;1.52;;;0.70;;
51724;SDS011;37801;53.224;6.552;2022-07-11T14:20:51;0.77;;;0.60;;
51724;SDS011;37801;53.224;6.552;2022-07-11T14:23:17;1.25;;;0.50;;
51724;SDS011;37801;53.224;6.552;2022-07-11T14:25:43;1.10;;;0.60;;
51724;SDS011;37801;53.224;6.552;2022-07-11T14:28:10;0.93;;;0.50;;
51724;SDS011;37801;53.224;6.552;2022-07-11T14:30:36;0.85;;;0.50;;
51724;SDS011;37801;53.224;6.552;2022-07-11T14:33:02;1.48;;;0.60;;
51724;SDS011;37801;53.224;6.552;2022-07-11T14:35:27;0.90;;;0.60;;
51724;SDS011;37801;53.224;6.552;2022-07-11T14:37:53;1.33;;;0.75;;
51724;SDS011;37801;53.224;6.552;2022-07-11T14:40:19;2.13;;;0.77;;
51724;SDS011;37801;53.224;6.552;2022-07-11T14:42:46;1.60;;;0.90;;
51724;SDS011;37801;53.224;6.552;2022-07-11T14:45:12;1.23;;;0.60;;
51724;SDS011;37801;53.224;6.552;2022-07-11T14:47:37;1.15;;;0.75;;
51724;SDS011;37801;53.224;6.552;2022-07-11T14:50:05;1.40;;;0.60;;
51724;SDS011;37801;53.224;6.552;2022-07-11T14:52:31;2.10;;;0.65;;
51724;SDS011;37801;53.224;6.552;2022-07-11T14:54:57;1.92;;;0.70;;
51724;SDS011;37801;53.224;6.552;2022-07-11T14:57:23;2.45;;;1.00;;
51724;SDS011;37801;53.224;6.552;2022-07-11T14:59:49;3.22;;;1.25;;
51724;SDS011;37801;53.224;6.552;2022-07-11T15:02:16;0.85;;;0.55;;
51724;SDS011;37801;53.224;6.552;2022-07-11T15:05:02;0.88;;;0.50;;
51724;SDS011;37801;53.224;6.552;2022-07-11T15:07:28;0.82;;;0.50;;
51724;SDS011;37801;53.224;6.552;2022-07-11T15:10:12;2.38;;;1.38;;
51724;SDS011;37801;53.224;6.552;2022-07-11T15:12:56;1.10;;;0.60;;
51724;SDS011;37801;53.224;6.552;2022-07-11T15:15:21;1.70;;;0.70;;
51724;SDS011;37801;53.224;6.552;2022-07-11T15:17:47;0.68;;;0.50;;
51724;SDS011;37801;53.224;6.552;2022-07-11T15:20:14;1.05;;;0.70;;
51724;SDS011;37801;53.224;6.552;2022-07-11T15:22:39;0.52;;;0.43;;
51724;SDS011;37801;53.224;6.552;2022-07-11T15:25:05;1.30;;;0.50;;
51724;SDS011;37801;53.224;6.552;2022-07-11T15:27:31;1.35;;;0.75;;
51724;SDS011;37801;53.224;6.552;2022-07-11T15:29:57;1.52;;;0.90;;
51724;SDS011;37801;53.224;6.552;2022-07-11T15:32:22;1.92;;;1.00;;
51724;SDS011;37801;53.224;6.552;2022-07-11T15:34:48;1.50;;;0.77;;
51724;SDS011;37801;53.224;6.552;2022-07-11T15:37:14;0.70;;;0.57;;
51724;SDS011;37801;53.224;6.552;2022-07-11T15:39:39;1.75;;;0.70;;
51724;SDS011;37801;53.224;6.552;2022-07-11T15:42:05;2.00;;;0.80;;
51724;SDS011;37801;53.224;6.552;2022-07-11T15:44:31;1.27;;;0.63;;
51724;SDS011;37801;53.224;6.552;2022-07-11T15:46:56;1.90;;;1.00;;
51724;SDS011;37801;53.224;6.552;2022-07-11T15:49:22;2.58;;;1.50;;